sensor_id;sensor_type;location;lat;lon;timestamp;P1;durP1;ratioP1;P2;durP2;ratioP2
62401;SDS011;48440;51.224;22.506;2022-11-25T00:01:55;58.50;;;20.15;;
62401;SDS011;48440;51.224;22.506;2022-11-25T00:04:21;57.50;;;20.95;;
62401;SDS011;48440;51.224;22.506;2022-11-25T00:06:46;52.20;;;21.23;;
62401;SDS011;48440;51.224;22.506;2022-11-25T00:09:12;50.45;;;20.42;;
62401;SDS011;48440;51.224;22.506;2022-11-25T00:11:38;56.70;;;22.00;;
62401;SDS011;48440;51.224;22.506;2022-11-25T00:14:06;53.10;;;20.58;;
62401;SDS011;48440;51.224;22.506;2022-11-25T00:16:35;54.42;;;20.92;;
62401;SDS011;48440;51.224;22.506;2022-11-25T00:19:01;57.72;;;21.35;;
62401;SDS011;48440;51.224;22.506;2022-11-25T00:21:29;54.88;;;21.10;;
62401;SDS011;48440;51.224;22.506;2022-11-25T00:23:58;50.67;;;22.10;;
62401;SDS011;48440;51.224;22.506;2022-11-25T00:26:28;56.92;;;21.98;;
62401;SDS011;48440;51.224;22.506;2022-11-25T00:28:57;54.28;;;20.95;;
62401;SDS011;48440;51.224;22.506;2022-11-25T00:31:25;64.75;;;24.08;;
62401;SDS011;48440;51.224;22.506;2022-11-25T00:33:53;64.03;;;21.15;;
62401;SDS011;48440;51.224;22.506;2022-11-25T00:36:26;70.90;;;23.50;;
62401;SDS011;48440;51.224;22.506;2022-11-25T00:39:01;57.00;;;22.85;;
62401;SDS011;48440;51.224;22.506;2022-11-25T00:41:29;63.25;;;23.77;;
62401;SDS011;48440;51.224;22.506;2022-11-25T00:44:14;61.72;;;23.65;;
62401;SDS011;48440;51.224;22.506;2022-11-25T00:47:03;61.15;;;24.15;;
62401;SDS011;48440;51.224;22.506;2022-11-25T00:49:43;62.80;;;22.60;;
62401;SDS011;48440;51.224;22.506;2022-11-25T00:52:22;65.90;;;23.75;;
62401;SDS011;48440;51.224;22.506;2022-11-25T00:54:50;64.25;;;22.77;;
62401;SDS011;48440;51.224;22.506;2022-11-25T00:57:17;55.03;;;20.88;;
62401;SDS011;48440;51.224;22.506;2022-11-25T00:59:43;62.70;;;23.48;;
62401;SDS011;48440;51.224;22.506;2022-11-25T01:02:09;60.17;;;21.17;;
62401;SDS011;48440;51.224;22.506;2022-11-25T01:04:36;63.20;;;23.10;;
62401;SDS011;48440;51.224;22.506;2022-11-25T01:07:02;61.70;;;22.77;;
62401;SDS011;48440;51.224;22.506;2022-11-25T01:09:28;58.40;;;21.70;;
62401;SDS011;48440;51.224;22.506;2022-11-25T01:11:54;58.50;;;22.85;;
62401;SDS011;48440;51.224;22.506;2022-11-25T01:14:20;55.67;;;21.60;;
62401;SDS011;48440;51.224;22.506;2022-11-25T01:16:46;63.45;;;22.88;;
62401;SDS011;48440;51.224;22.506;2022-11-25T01:19:12;62.35;;;23.05;;
62401;SDS011;48440;51.224;22.506;2022-11-25T01:21:38;60.15;;;22.90;;
62401;SDS011;48440;51.224;22.506;2022-11-25T01:24:04;57.85;;;21.52;;
62401;SDS011;48440;51.224;22.506;2022-11-25T01:26:31;54.08;;;21.70;;
62401;SDS011;48440;51.224;22.506;2022-11-25T01:28:58;53.13;;;21.60;;
62401;SDS011;48440;51.224;22.506;2022-11-25T01:31:26;60.67;;;23.30;;
62401;SDS011;48440;51.224;22.506;2022-11-25T01:33:54;65.25;;;22.75;;
62401;SDS011;48440;51.224;22.506;2022-11-25T01:36:22;51.15;;;20.70;;
62401;SDS011;48440;51.224;22.506;2022-11-25T01:38:54;64.30;;;25.15;;
62401;SDS011;48440;51.224;22.506;2022-11-25T01:41:21;64.85;;;24.05;;
62401;SDS011;48440;51.224;22.506;2022-11-25T01:51:57;65.15;;;23.20;;
62401;SDS011;48440;51.224;22.506;2022-11-25T01:54:28;68.93;;;22.70;;
62401;SDS011;48440;51.224;22.506;2022-11-25T01:57:12;60.20;;;24.27;;
62401;SDS011;48440;51.224;22.506;2022-11-25T01:59:42;66.28;;;22.73;;
62401;SDS011;48440;51.224;22.506;2022-11-25T02:02:13;63.63;;;23.25;;
62401;SDS011;48440;51.224;22.506;2022-11-25T02:04:40;62.25;;;23.65;;
62401;SDS011;48440;51.224;22.506;2022-11-25T02:07:11;58.95;;;22.13;;
62401;SDS011;48440;51.224;22.506;2022-11-25T02:10:04;54.88;;;21.92;;
62401;SDS011;48440;51.224;22.506;2022-11-25T02:12:36;58.05;;;23.38;;
62401;SDS011;48440;51.224;22.506;2022-11-25T02:15:04;59.42;;;22.42;;
62401;SDS011;48440;51.224;22.506;2022-11-25T02:17:30;52.65;;;20.85;;
62401;SDS011;48440;51.224;22.506;2022-11-25T02:20:07;61.47;;;21.45;;
62401;SDS011;48440;51.224;22.506;2022-11-25T02:27:42;55.72;;;20.55;;
62401;SDS011;48440;51.224;22.506;2022-11-25T02:30:10;64.25;;;22.58;;
62401;SDS011;48440;51.224;22.506;2022-11-25T02:32:41;62.03;;;22.92;;
62401;SDS011;48440;51.224;22.506;2022-11-25T02:35:24;61.17;;;22.05;;
62401;SDS011;48440;51.224;22.506;2022-11-25T02:37:50;62.83;;;22.83;;
62401;SDS011;48440;51.224;22.506;2022-11-25T02:40:19;59.33;;;22.65;;
62401;SDS011;48440;51.224;22.506;2022-11-25T02:42:45;76.88;;;23.45;;
62401;SDS011;48440;51.224;22.506;2022-11-25T02:45:13;61.05;;;22.88;;
62401;SDS011;48440;51.224;22.506;2022-11-25T02:47:45;69.85;;;21.08;;
62401;SDS011;48440;51.224;22.506;2022-11-25T02:50:11;64.75;;;22.85;;
62401;SDS011;48440;51.224;22.506;2022-11-25T02:52:38;72.50;;;23.35;;
62401;SDS011;48440;51.224;22.506;2022-11-25T02:55:04;79.18;;;24.73;;
62401;SDS011;48440;51.224;22.506;2022-11-25T02:57:29;76.93;;;24.60;;
62401;SDS011;48440;51.224;22.506;2022-11-25T02:59:55;72.75;;;23.73;;
62401;SDS011;48440;51.224;22.506;2022-11-25T03:02:20;79.47;;;24.33;;
62401;SDS011;48440;51.224;22.506;2022-11-25T03:04:46;85.72;;;26.42;;
62401;SDS011;48440;51.224;22.506;2022-11-25T03:07:11;74.63;;;25.42;;
62401;SDS011;48440;51.224;22.506;2022-11-25T03:09:36;79.00;;;23.98;;
62401;SDS011;48440;51.224;22.506;2022-11-25T03:12:02;77.65;;;24.40;;
62401;SDS011;48440;51.224;22.506;2022-11-25T03:14:46;86.43;;;26.05;;
62401;SDS011;48440;51.224;22.506;2022-11-25T03:17:12;87.47;;;25.55;;
62401;SDS011;48440;51.224;22.506;2022-11-25T03:19:38;76.28;;;24.73;;
62401;SDS011;48440;51.224;22.506;2022-11-25T03:22:03;77.35;;;23.83;;
62401;SDS011;48440;51.224;22.506;2022-11-25T03:24:29;69.00;;;22.63;;
62401;SDS011;48440;51.224;22.506;2022-11-25T03:26:54;85.93;;;25.95;;
62401;SDS011;48440;51.224;22.506;2022-11-25T03:29:20;83.22;;;24.40;;
62401;SDS011;48440;51.224;22.506;2022-11-25T03:31:45;71.45;;;24.73;;
62401;SDS011;48440;51.224;22.506;2022-11-25T03:34:11;78.43;;;25.35;;
62401;SDS011;48440;51.224;22.506;2022-11-25T03:36:36;84.68;;;25.42;;
62401;SDS011;48440;51.224;22.506;2022-11-25T03:39:02;76.70;;;25.58;;
62401;SDS011;48440;51.224;22.506;2022-11-25T03:41:28;81.38;;;24.83;;
62401;SDS011;48440;51.224;22.506;2022-11-25T03:43:53;75.18;;;25.60;;
62401;SDS011;48440;51.224;22.506;2022-11-25T03:46:21;79.93;;;25.50;;
62401;SDS011;48440;51.224;22.506;2022-11-25T03:48:46;77.75;;;26.30;;
62401;SDS011;48440;51.224;22.506;2022-11-25T03:51:12;76.75;;;24.88;;
62401;SDS011;48440;51.224;22.506;2022-11-25T03:53:37;76.78;;;24.95;;
62401;SDS011;48440;51.224;22.506;2022-11-25T03:56:03;75.95;;;26.15;;
62401;SDS011;48440;51.224;22.506;2022-11-25T03:58:28;74.43;;;24.83;;
62401;SDS011;48440;51.224;22.506;2022-11-25T04:00:58;75.00;;;24.45;;
62401;SDS011;48440;51.224;22.506;2022-11-25T04:03:24;84.25;;;25.55;;
62401;SDS011;48440;51.224;22.506;2022-11-25T04:05:49;82.35;;;24.85;;
62401;SDS011;48440;51.224;22.506;2022-11-25T04:08:15;73.72;;;23.90;;
62401;SDS011;48440;51.224;22.506;2022-11-25T04:10:40;85.95;;;25.98;;
62401;SDS011;48440;51.224;22.506;2022-11-25T04:13:06;71.35;;;24.05;;
62401;SDS011;48440;51.224;22.506;2022-11-25T04:15:32;78.07;;;24.30;;
62401;SDS011;48440;51.224;22.506;2022-11-25T04:17:57;70.38;;;26.13;;
62401;SDS011;48440;51.224;22.506;2022-11-25T04:20:22;72.38;;;22.38;;
62401;SDS011;48440;51.224;22.506;2022-11-25T04:22:48;82.30;;;23.98;;
62401;SDS011;48440;51.224;22.506;2022-11-25T04:25:13;82.57;;;25.42;;
62401;SDS011;48440;51.224;22.506;2022-11-25T04:27:39;72.45;;;23.13;;
62401;SDS011;48440;51.224;22.506;2022-11-25T04:30:04;78.50;;;23.73;;
62401;SDS011;48440;51.224;22.506;2022-11-25T04:32:31;77.15;;;24.52;;
62401;SDS011;48440;51.224;22.506;2022-11-25T04:34:56;78.03;;;24.20;;
62401;SDS011;48440;51.224;22.506;2022-11-25T04:37:21;71.60;;;23.25;;
62401;SDS011;48440;51.224;22.506;2022-11-25T04:39:47;81.55;;;24.45;;
62401;SDS011;48440;51.224;22.506;2022-11-25T04:42:12;86.80;;;24.95;;
62401;SDS011;48440;51.224;22.506;2022-11-25T04:44:57;87.15;;;25.00;;
62401;SDS011;48440;51.224;22.506;2022-11-25T04:47:23;87.32;;;25.05;;
62401;SDS011;48440;51.224;22.506;2022-11-25T04:49:48;85.15;;;26.20;;
62401;SDS011;48440;51.224;22.506;2022-11-25T04:52:14;77.97;;;23.42;;
62401;SDS011;48440;51.224;22.506;2022-11-25T04:54:39;82.63;;;25.50;;
62401;SDS011;48440;51.224;22.506;2022-11-25T04:57:05;82.45;;;24.48;;
62401;SDS011;48440;51.224;22.506;2022-11-25T04:59:30;83.55;;;25.40;;
62401;SDS011;48440;51.224;22.506;2022-11-25T05:04:38;90.60;;;25.90;;
62401;SDS011;48440;51.224;22.506;2022-11-25T05:07:03;87.38;;;25.42;;
62401;SDS011;48440;51.224;22.506;2022-11-25T05:09:29;85.10;;;25.02;;
62401;SDS011;48440;51.224;22.506;2022-11-25T05:11:54;87.22;;;24.08;;
62401;SDS011;48440;51.224;22.506;2022-11-25T05:14:20;89.50;;;23.58;;
62401;SDS011;48440;51.224;22.506;2022-11-25T05:16:46;83.88;;;24.75;;
62401;SDS011;48440;51.224;22.506;2022-11-25T05:19:12;85.82;;;24.35;;
62401;SDS011;48440;51.224;22.506;2022-11-25T05:21:37;91.57;;;24.90;;
62401;SDS011;48440;51.224;22.506;2022-11-25T05:24:02;98.13;;;26.80;;
62401;SDS011;48440;51.224;22.506;2022-11-25T05:26:28;85.22;;;25.63;;
62401;SDS011;48440;51.224;22.506;2022-11-25T05:28:54;76.85;;;23.60;;
62401;SDS011;48440;51.224;22.506;2022-11-25T05:31:19;101.38;;;26.23;;
62401;SDS011;48440;51.224;22.506;2022-11-25T05:33:44;86.30;;;23.15;;
62401;SDS011;48440;51.224;22.506;2022-11-25T05:36:10;94.60;;;24.95;;
62401;SDS011;48440;51.224;22.506;2022-11-25T05:38:35;104.72;;;25.25;;
62401;SDS011;48440;51.224;22.506;2022-11-25T05:41:02;101.28;;;25.63;;
62401;SDS011;48440;51.224;22.506;2022-11-25T05:43:29;95.20;;;24.75;;
62401;SDS011;48440;51.224;22.506;2022-11-25T05:45:55;97.63;;;24.45;;
62401;SDS011;48440;51.224;22.506;2022-11-25T05:48:21;100.60;;;27.58;;
62401;SDS011;48440;51.224;22.506;2022-11-25T05:50:47;83.55;;;22.88;;
62401;SDS011;48440;51.224;22.506;2022-11-25T05:53:12;82.45;;;24.67;;
62401;SDS011;48440;51.224;22.506;2022-11-25T05:55:41;98.18;;;24.75;;
62401;SDS011;48440;51.224;22.506;2022-11-25T05:58:07;84.55;;;23.52;;
62401;SDS011;48440;51.224;22.506;2022-11-25T06:00:32;86.47;;;23.52;;
62401;SDS011;48440;51.224;22.506;2022-11-25T06:02:58;95.55;;;23.00;;
62401;SDS011;48440;51.224;22.506;2022-11-25T06:05:23;85.93;;;23.30;;
62401;SDS011;48440;51.224;22.506;2022-11-25T06:07:49;98.28;;;26.80;;
62401;SDS011;48440;51.224;22.506;2022-11-25T06:10:15;88.05;;;24.50;;
62401;SDS011;48440;51.224;22.506;2022-11-25T06:12:41;91.60;;;25.17;;
62401;SDS011;48440;51.224;22.506;2022-11-25T06:15:07;90.65;;;24.95;;
62401;SDS011;48440;51.224;22.506;2022-11-25T06:17:33;102.18;;;26.83;;
62401;SDS011;48440;51.224;22.506;2022-11-25T06:19:58;99.00;;;24.73;;
62401;SDS011;48440;51.224;22.506;2022-11-25T06:22:23;89.78;;;24.52;;
62401;SDS011;48440;51.224;22.506;2022-11-25T06:24:49;96.00;;;24.70;;
62401;SDS011;48440;51.224;22.506;2022-11-25T06:27:14;104.85;;;24.60;;
62401;SDS011;48440;51.224;22.506;2022-11-25T06:29:40;97.50;;;23.17;;
62401;SDS011;48440;51.224;22.506;2022-11-25T06:32:05;92.78;;;23.92;;
62401;SDS011;48440;51.224;22.506;2022-11-25T06:34:31;85.95;;;23.85;;
62401;SDS011;48440;51.224;22.506;2022-11-25T06:36:56;73.90;;;21.27;;
62401;SDS011;48440;51.224;22.506;2022-11-25T06:39:22;83.90;;;23.25;;
62401;SDS011;48440;51.224;22.506;2022-11-25T06:41:47;78.82;;;21.70;;
62401;SDS011;48440;51.224;22.506;2022-11-25T06:44:13;71.22;;;21.45;;
62401;SDS011;48440;51.224;22.506;2022-11-25T06:46:38;84.32;;;22.08;;
62401;SDS011;48440;51.224;22.506;2022-11-25T06:49:04;69.68;;;21.70;;
62401;SDS011;48440;51.224;22.506;2022-11-25T06:51:31;88.15;;;21.48;;
62401;SDS011;48440;51.224;22.506;2022-11-25T06:53:57;75.93;;;21.08;;
62401;SDS011;48440;51.224;22.506;2022-11-25T06:56:23;82.10;;;22.52;;
62401;SDS011;48440;51.224;22.506;2022-11-25T06:58:51;83.50;;;22.92;;
62401;SDS011;48440;51.224;22.506;2022-11-25T07:03:51;71.57;;;21.75;;
62401;SDS011;48440;51.224;22.506;2022-11-25T07:06:18;67.20;;;19.80;;
62401;SDS011;48440;51.224;22.506;2022-11-25T07:08:45;64.28;;;19.85;;
62401;SDS011;48440;51.224;22.506;2022-11-25T07:11:12;56.20;;;20.17;;
62401;SDS011;48440;51.224;22.506;2022-11-25T07:13:41;62.72;;;21.58;;
62401;SDS011;48440;51.224;22.506;2022-11-25T07:16:08;57.30;;;19.10;;
62401;SDS011;48440;51.224;22.506;2022-11-25T07:18:36;51.20;;;17.05;;
62401;SDS011;48440;51.224;22.506;2022-11-25T07:23:39;44.40;;;16.40;;
62401;SDS011;48440;51.224;22.506;2022-11-25T07:26:09;40.80;;;15.70;;
62401;SDS011;48440;51.224;22.506;2022-11-25T07:28:37;38.22;;;15.02;;
62401;SDS011;48440;51.224;22.506;2022-11-25T07:31:04;42.00;;;14.18;;
62401;SDS011;48440;51.224;22.506;2022-11-25T07:33:34;42.72;;;16.80;;
62401;SDS011;48440;51.224;22.506;2022-11-25T07:36:01;41.22;;;14.98;;
62401;SDS011;48440;51.224;22.506;2022-11-25T07:38:30;33.20;;;13.32;;
62401;SDS011;48440;51.224;22.506;2022-11-25T07:41:01;45.83;;;15.35;;
62401;SDS011;48440;51.224;22.506;2022-11-25T07:43:34;39.15;;;14.35;;
62401;SDS011;48440;51.224;22.506;2022-11-25T07:46:11;36.08;;;14.43;;
62401;SDS011;48440;51.224;22.506;2022-11-25T07:48:37;40.25;;;14.45;;
62401;SDS011;48440;51.224;22.506;2022-11-25T07:51:03;41.15;;;15.35;;
62401;SDS011;48440;51.224;22.506;2022-11-25T07:53:28;35.20;;;15.00;;
62401;SDS011;48440;51.224;22.506;2022-11-25T07:55:54;36.13;;;13.73;;
62401;SDS011;48440;51.224;22.506;2022-11-25T07:58:19;40.05;;;14.55;;
62401;SDS011;48440;51.224;22.506;2022-11-25T08:00:44;40.90;;;15.55;;
62401;SDS011;48440;51.224;22.506;2022-11-25T08:03:10;45.40;;;14.95;;
62401;SDS011;48440;51.224;22.506;2022-11-25T08:05:35;40.15;;;14.10;;
62401;SDS011;48440;51.224;22.506;2022-11-25T08:08:01;39.30;;;14.35;;
62401;SDS011;48440;51.224;22.506;2022-11-25T08:10:26;39.55;;;15.93;;
62401;SDS011;48440;51.224;22.506;2022-11-25T08:12:52;43.53;;;15.15;;
62401;SDS011;48440;51.224;22.506;2022-11-25T08:15:17;38.40;;;14.90;;
62401;SDS011;48440;51.224;22.506;2022-11-25T08:17:43;40.00;;;15.68;;
62401;SDS011;48440;51.224;22.506;2022-11-25T08:20:09;44.58;;;16.23;;
62401;SDS011;48440;51.224;22.506;2022-11-25T08:22:34;43.58;;;15.38;;
62401;SDS011;48440;51.224;22.506;2022-11-25T08:25:00;47.28;;;15.98;;
62401;SDS011;48440;51.224;22.506;2022-11-25T08:27:25;41.97;;;15.15;;
62401;SDS011;48440;51.224;22.506;2022-11-25T08:29:51;44.85;;;16.52;;
62401;SDS011;48440;51.224;22.506;2022-11-25T08:32:16;39.92;;;15.40;;
62401;SDS011;48440;51.224;22.506;2022-11-25T08:34:42;43.22;;;15.30;;
62401;SDS011;48440;51.224;22.506;2022-11-25T08:37:07;36.25;;;15.27;;
62401;SDS011;48440;51.224;22.506;2022-11-25T08:39:33;44.10;;;15.75;;
62401;SDS011;48440;51.224;22.506;2022-11-25T08:42:00;38.85;;;15.02;;
62401;SDS011;48440;51.224;22.506;2022-11-25T08:44:28;42.30;;;15.20;;
62401;SDS011;48440;51.224;22.506;2022-11-25T08:46:54;40.22;;;15.18;;
62401;SDS011;48440;51.224;22.506;2022-11-25T08:49:19;44.08;;;16.23;;
62401;SDS011;48440;51.224;22.506;2022-11-25T08:51:46;42.83;;;17.15;;
62401;SDS011;48440;51.224;22.506;2022-11-25T08:54:11;41.85;;;16.70;;
62401;SDS011;48440;51.224;22.506;2022-11-25T08:56:37;41.05;;;16.17;;
62401;SDS011;48440;51.224;22.506;2022-11-25T08:59:03;40.97;;;16.65;;
62401;SDS011;48440;51.224;22.506;2022-11-25T09:01:28;39.40;;;15.50;;
62401;SDS011;48440;51.224;22.506;2022-11-25T09:03:55;44.75;;;16.55;;
62401;SDS011;48440;51.224;22.506;2022-11-25T09:06:21;47.60;;;17.02;;
62401;SDS011;48440;51.224;22.506;2022-11-25T09:08:49;42.13;;;16.02;;
62401;SDS011;48440;51.224;22.506;2022-11-25T09:11:15;45.45;;;15.40;;
62401;SDS011;48440;51.224;22.506;2022-11-25T09:13:41;41.67;;;15.00;;
62401;SDS011;48440;51.224;22.506;2022-11-25T09:16:06;41.13;;;15.38;;
62401;SDS011;48440;51.224;22.506;2022-11-25T09:18:33;41.67;;;15.18;;
62401;SDS011;48440;51.224;22.506;2022-11-25T09:21:05;38.50;;;15.38;;
62401;SDS011;48440;51.224;22.506;2022-11-25T09:23:35;37.53;;;14.63;;
62401;SDS011;48440;51.224;22.506;2022-11-25T09:26:02;38.40;;;14.63;;
62401;SDS011;48440;51.224;22.506;2022-11-25T09:28:29;33.83;;;14.02;;
62401;SDS011;48440;51.224;22.506;2022-11-25T09:30:55;33.00;;;12.38;;
62401;SDS011;48440;51.224;22.506;2022-11-25T09:33:21;38.80;;;14.30;;
62401;SDS011;48440;51.224;22.506;2022-11-25T09:35:50;33.20;;;13.70;;
62401;SDS011;48440;51.224;22.506;2022-11-25T09:38:15;37.85;;;14.60;;
62401;SDS011;48440;51.224;22.506;2022-11-25T09:40:48;34.55;;;13.18;;
62401;SDS011;48440;51.224;22.506;2022-11-25T09:55:38;43.35;;;16.50;;
62401;SDS011;48440;51.224;22.506;2022-11-25T09:57:51;43.88;;;15.77;;
62401;SDS011;48440;51.224;22.506;2022-11-25T10:00:37;44.22;;;16.05;;
62401;SDS011;48440;51.224;22.506;2022-11-25T10:05:35;38.08;;;15.73;;
62401;SDS011;48440;51.224;22.506;2022-11-25T10:08:07;41.53;;;16.20;;
62401;SDS011;48440;51.224;22.506;2022-11-25T10:10:40;39.88;;;16.30;;
62401;SDS011;48440;51.224;22.506;2022-11-25T10:13:07;36.25;;;15.23;;
62401;SDS011;48440;51.224;22.506;2022-11-25T10:15:42;36.67;;;15.00;;
62401;SDS011;48440;51.224;22.506;2022-11-25T10:20:54;31.80;;;12.85;;
62401;SDS011;48440;51.224;22.506;2022-11-25T10:23:21;33.30;;;13.90;;
62401;SDS011;48440;51.224;22.506;2022-11-25T10:25:51;29.75;;;13.65;;
62401;SDS011;48440;51.224;22.506;2022-11-25T10:28:22;29.55;;;13.73;;
62401;SDS011;48440;51.224;22.506;2022-11-25T10:31:10;35.33;;;12.93;;
62401;SDS011;48440;51.224;22.506;2022-11-25T10:33:36;36.00;;;14.32;;
62401;SDS011;48440;51.224;22.506;2022-11-25T10:41:59;37.03;;;14.93;;
62401;SDS011;48440;51.224;22.506;2022-11-25T10:44:35;40.63;;;15.38;;
62401;SDS011;48440;51.224;22.506;2022-11-25T10:52:42;36.72;;;14.63;;
62401;SDS011;48440;51.224;22.506;2022-11-25T10:55:15;37.50;;;15.15;;
62401;SDS011;48440;51.224;22.506;2022-11-25T10:57:52;37.30;;;15.25;;
62401;SDS011;48440;51.224;22.506;2022-11-25T11:00:34;38.63;;;16.17;;
62401;SDS011;48440;51.224;22.506;2022-11-25T11:03:13;40.88;;;16.67;;
62401;SDS011;48440;51.224;22.506;2022-11-25T11:05:47;46.75;;;16.50;;
62401;SDS011;48440;51.224;22.506;2022-11-25T11:10:42;43.95;;;17.38;;
62401;SDS011;48440;51.224;22.506;2022-11-25T11:13:24;39.53;;;16.80;;
62401;SDS011;48440;51.224;22.506;2022-11-25T11:15:57;47.78;;;15.68;;
62401;SDS011;48440;51.224;22.506;2022-11-25T11:18:38;43.95;;;17.38;;
62401;SDS011;48440;51.224;22.506;2022-11-25T11:21:06;49.60;;;17.30;;
62401;SDS011;48440;51.224;22.506;2022-11-25T11:23:47;48.13;;;19.05;;
62401;SDS011;48440;51.224;22.506;2022-11-25T11:26:24;49.40;;;17.30;;
62401;SDS011;48440;51.224;22.506;2022-11-25T11:28:58;47.45;;;17.70;;
62401;SDS011;48440;51.224;22.506;2022-11-25T11:31:44;47.97;;;17.80;;
62401;SDS011;48440;51.224;22.506;2022-11-25T11:39:53;45.95;;;17.33;;
62401;SDS011;48440;51.224;22.506;2022-11-25T11:45:58;48.20;;;17.50;;
62401;SDS011;48440;51.224;22.506;2022-11-25T11:54:38;53.30;;;21.02;;
62401;SDS011;48440;51.224;22.506;2022-11-25T11:57:32;48.75;;;19.10;;
62401;SDS011;48440;51.224;22.506;2022-11-25T12:00:23;55.67;;;20.27;;
62401;SDS011;48440;51.224;22.506;2022-11-25T12:02:59;49.38;;;19.33;;
62401;SDS011;48440;51.224;22.506;2022-11-25T12:05:37;52.67;;;19.05;;
62401;SDS011;48440;51.224;22.506;2022-11-25T12:08:13;46.72;;;16.75;;
62401;SDS011;48440;51.224;22.506;2022-11-25T12:10:49;45.92;;;17.27;;
62401;SDS011;48440;51.224;22.506;2022-11-25T12:16:29;51.70;;;18.98;;
62401;SDS011;48440;51.224;22.506;2022-11-25T12:19:20;53.95;;;19.33;;
62401;SDS011;48440;51.224;22.506;2022-11-25T12:21:56;55.15;;;20.40;;
62401;SDS011;48440;51.224;22.506;2022-11-25T12:24:52;55.38;;;20.63;;
62401;SDS011;48440;51.224;22.506;2022-11-25T12:27:43;65.55;;;21.10;;
62401;SDS011;48440;51.224;22.506;2022-11-25T12:30:18;60.70;;;22.05;;
62401;SDS011;48440;51.224;22.506;2022-11-25T12:32:47;52.22;;;20.75;;
62401;SDS011;48440;51.224;22.506;2022-11-25T12:43:49;66.43;;;22.73;;
62401;SDS011;48440;51.224;22.506;2022-11-25T12:46:22;49.00;;;19.92;;
62401;SDS011;48440;51.224;22.506;2022-11-25T12:49:13;58.67;;;21.67;;
62401;SDS011;48440;51.224;22.506;2022-11-25T13:00:22;52.90;;;20.85;;
62401;SDS011;48440;51.224;22.506;2022-11-25T13:13:30;59.95;;;19.98;;
62401;SDS011;48440;51.224;22.506;2022-11-25T13:16:06;59.15;;;20.83;;
62401;SDS011;48440;51.224;22.506;2022-11-25T13:18:33;54.83;;;20.00;;
62401;SDS011;48440;51.224;22.506;2022-11-25T13:21:05;53.03;;;21.13;;
62401;SDS011;48440;51.224;22.506;2022-11-25T13:23:46;49.97;;;21.08;;
62401;SDS011;48440;51.224;22.506;2022-11-25T13:29:00;62.10;;;21.35;;
62401;SDS011;48440;51.224;22.506;2022-11-25T13:31:31;58.75;;;20.77;;
62401;SDS011;48440;51.224;22.506;2022-11-25T13:34:41;69.05;;;23.83;;
62401;SDS011;48440;51.224;22.506;2022-11-25T13:37:01;69.90;;;21.73;;
62401;SDS011;48440;51.224;22.506;2022-11-25T13:39:47;61.17;;;22.88;;
62401;SDS011;48440;51.224;22.506;2022-11-25T13:42:25;63.38;;;23.40;;
62401;SDS011;48440;51.224;22.506;2022-11-25T13:44:52;64.30;;;23.48;;
62401;SDS011;48440;51.224;22.506;2022-11-25T13:49:53;59.03;;;22.90;;
62401;SDS011;48440;51.224;22.506;2022-11-25T13:54:55;62.13;;;22.02;;
62401;SDS011;48440;51.224;22.506;2022-11-25T13:57:25;67.25;;;21.77;;
62401;SDS011;48440;51.224;22.506;2022-11-25T14:02:32;58.85;;;21.35;;
62401;SDS011;48440;51.224;22.506;2022-11-25T14:05:34;67.70;;;23.13;;
62401;SDS011;48440;51.224;22.506;2022-11-25T14:11:23;58.13;;;21.27;;
62401;SDS011;48440;51.224;22.506;2022-11-25T14:17:28;61.78;;;21.58;;
62401;SDS011;48440;51.224;22.506;2022-11-25T14:20:15;59.10;;;22.85;;
62401;SDS011;48440;51.224;22.506;2022-11-25T14:25:54;56.00;;;20.98;;
62401;SDS011;48440;51.224;22.506;2022-11-25T14:28:32;60.88;;;20.25;;
62401;SDS011;48440;51.224;22.506;2022-11-25T14:31:06;58.05;;;22.98;;
62401;SDS011;48440;51.224;22.506;2022-11-25T14:33:57;58.95;;;22.73;;
62401;SDS011;48440;51.224;22.506;2022-11-25T14:36:40;73.28;;;24.15;;
62401;SDS011;48440;51.224;22.506;2022-11-25T14:39:24;70.53;;;23.48;;
62401;SDS011;48440;51.224;22.506;2022-11-25T14:41:59;63.63;;;22.85;;
62401;SDS011;48440;51.224;22.506;2022-11-25T14:44:33;59.28;;;22.50;;
62401;SDS011;48440;51.224;22.506;2022-11-25T14:47:05;74.88;;;23.38;;
62401;SDS011;48440;51.224;22.506;2022-11-25T14:49:44;79.53;;;23.55;;
62401;SDS011;48440;51.224;22.506;2022-11-25T14:52:24;86.43;;;25.05;;
62401;SDS011;48440;51.224;22.506;2022-11-25T14:54:56;65.00;;;23.40;;
62401;SDS011;48440;51.224;22.506;2022-11-25T14:57:24;70.78;;;24.30;;
62401;SDS011;48440;51.224;22.506;2022-11-25T14:59:52;69.95;;;25.33;;
62401;SDS011;48440;51.224;22.506;2022-11-25T15:02:25;75.68;;;26.67;;
62401;SDS011;48440;51.224;22.506;2022-11-25T15:04:59;74.30;;;23.90;;
62401;SDS011;48440;51.224;22.506;2022-11-25T15:07:26;77.10;;;25.08;;
62401;SDS011;48440;51.224;22.506;2022-11-25T15:09:53;63.75;;;23.00;;
62401;SDS011;48440;51.224;22.506;2022-11-25T15:12:19;71.95;;;25.33;;
62401;SDS011;48440;51.224;22.506;2022-11-25T15:14:49;64.63;;;22.42;;
62401;SDS011;48440;51.224;22.506;2022-11-25T15:19:54;70.15;;;24.65;;
62401;SDS011;48440;51.224;22.506;2022-11-25T15:22:23;67.63;;;25.40;;
62401;SDS011;48440;51.224;22.506;2022-11-25T15:24:50;75.53;;;26.77;;
62401;SDS011;48440;51.224;22.506;2022-11-25T15:27:26;78.65;;;28.48;;
62401;SDS011;48440;51.224;22.506;2022-11-25T15:29:53;80.47;;;29.27;;
62401;SDS011;48440;51.224;22.506;2022-11-25T15:32:24;73.88;;;28.85;;
62401;SDS011;48440;51.224;22.506;2022-11-25T15:34:53;75.75;;;26.00;;
62401;SDS011;48440;51.224;22.506;2022-11-25T15:37:21;68.70;;;25.17;;
62401;SDS011;48440;51.224;22.506;2022-11-25T15:39:48;78.30;;;28.38;;
62401;SDS011;48440;51.224;22.506;2022-11-25T15:44:57;71.75;;;27.15;;
62401;SDS011;48440;51.224;22.506;2022-11-25T15:47:28;72.05;;;27.52;;
62401;SDS011;48440;51.224;22.506;2022-11-25T15:52:37;80.00;;;27.58;;
62401;SDS011;48440;51.224;22.506;2022-11-25T15:55:16;85.03;;;27.88;;
62401;SDS011;48440;51.224;22.506;2022-11-25T15:57:56;88.53;;;29.38;;
62401;SDS011;48440;51.224;22.506;2022-11-25T16:00:27;86.03;;;29.77;;
62401;SDS011;48440;51.224;22.506;2022-11-25T16:02:55;89.28;;;28.73;;
62401;SDS011;48440;51.224;22.506;2022-11-25T16:05:24;88.28;;;30.75;;
62401;SDS011;48440;51.224;22.506;2022-11-25T16:10:18;86.57;;;28.38;;
62401;SDS011;48440;51.224;22.506;2022-11-25T16:18:19;88.22;;;30.63;;
62401;SDS011;48440;51.224;22.506;2022-11-25T16:21:11;99.28;;;33.15;;
62401;SDS011;48440;51.224;22.506;2022-11-25T16:23:40;99.05;;;32.72;;
62401;SDS011;48440;51.224;22.506;2022-11-25T16:28:35;77.97;;;28.48;;
62401;SDS011;48440;51.224;22.506;2022-11-25T16:31:01;84.43;;;29.05;;
62401;SDS011;48440;51.224;22.506;2022-11-25T16:33:26;85.90;;;29.15;;
62401;SDS011;48440;51.224;22.506;2022-11-25T16:35:52;85.50;;;29.17;;
62401;SDS011;48440;51.224;22.506;2022-11-25T16:38:18;90.63;;;29.65;;
62401;SDS011;48440;51.224;22.506;2022-11-25T16:40:43;90.25;;;30.15;;